sensor_id;sensor_type;location;lat;lon;timestamp;noise_LAeq;noise_LA_min;noise_LA_max;noise_LA01;noise_LA95
71016;Laerm;60940;52.046;5.340;2023-06-04T00:00:03;31.33;29.43;33.12;;
71016;Laerm;60940;52.046;5.340;2023-06-04T00:00:14;31.17;29.74;33.04;;
71016;Laerm;60940;52.046;5.340;2023-06-04T00:00:24;30.94;29.71;32.27;;
71016;Laerm;60940;52.046;5.340;2023-06-04T00:00:34;31.20;29.61;32.69;;
71016;Laerm;60940;52.046;5.340;2023-06-04T00:00:44;30.86;29.55;32.33;;
71016;Laerm;60940;52.046;5.340;2023-06-04T00:00:56;30.48;28.94;39.07;;
71016;Laerm;60940;52.046;5.340;2023-06-04T00:01:08;30.64;29.29;32.42;;
71016;Laerm;60940;52.046;5.340;2023-06-04T00:01:18;30.12;29.08;31.55;;
71016;Laerm;60940;52.046;5.340;2023-06-04T00:01:29;29.78;28.80;30.77;;
71016;Laerm;60940;52.046;5.340;2023-06-04T00:01:39;29.73;28.64;31.10;;
71016;Laerm;60940;52.046;5.340;2023-06-04T00:01:49;30.34;29.17;31.57;;
71016;Laerm;60940;52.046;5.340;2023-06-04T00:01:59;30.47;28.83;35.06;;
71016;Laerm;60940;52.046;5.340;2023-06-04T00:02:10;30.42;29.20;31.75;;
71016;Laerm;60940;52.046;5.340;2023-06-04T00:02:20;30.53;28.93;31.79;;
71016;Laerm;60940;52.046;5.340;2023-06-04T00:02:30;30.41;29.21;32.07;;
71016;Laerm;60940;52.046;5.340;2023-06-04T00:02:41;30.84;29.12;32.55;;
71016;Laerm;60940;52.046;5.340;2023-06-04T00:02:51;32.40;30.21;36.81;;
71016;Laerm;60940;52.046;5.340;2023-06-04T00:03:01;31.69;29.51;37.75;;
71016;Laerm;60940;52.046;5.340;2023-06-04T00:03:12;30.79;29.16;33.12;;
71016;Laerm;60940;52.046;5.340;2023-06-04T00:03:22;32.03;30.32;34.73;;
71016;Laerm;60940;52.046;5.340;2023-06-04T00:03:33;30.83;29.51;32.68;;
71016;Laerm;60940;52.046;5.340;2023-06-04T00:03:44;30.88;29.36;33.39;;
71016;Laerm;60940;52.046;5.340;2023-06-04T00:03:54;30.52;29.33;32.04;;
71016;Laerm;60940;52.046;5.340;2023-06-04T00:04:04;30.47;29.04;32.06;;
71016;Laerm;60940;52.046;5.340;2023-06-04T00:04:14;29.89;28.82;31.21;;
71016;Laerm;60940;52.046;5.340;2023-06-04T00:04:25;30.16;29.06;32.12;;
71016;Laerm;60940;52.046;5.340;2023-06-04T00:04:35;30.15;28.83;31.80;;
71016;Laerm;60940;52.046;5.340;2023-06-04T00:04:46;30.25;28.56;32.20;;
71016;Laerm;60940;52.046;5.340;2023-06-04T00:04:56;29.95;28.72;31.65;;
71016;Laerm;60940;52.046;5.340;2023-06-04T00:05:06;30.07;28.80;31.21;;
71016;Laerm;60940;52.046;5.340;2023-06-04T00:05:17;29.73;28.69;31.28;;
71016;Laerm;60940;52.046;5.340;2023-06-04T00:05:27;29.86;28.59;32.72;;
71016;Laerm;60940;52.046;5.340;2023-06-04T00:05:37;30.32;28.91;37.51;;
71016;Laerm;60940;52.046;5.340;2023-06-04T00:05:47;29.96;28.93;31.20;;
71016;Laerm;60940;52.046;5.340;2023-06-04T00:05:57;29.84;28.71;30.77;;
71016;Laerm;60940;52.046;5.340;2023-06-04T00:06:08;30.20;28.73;32.11;;
71016;Laerm;60940;52.046;5.340;2023-06-04T00:06:18;32.86;29.60;36.76;;
71016;Laerm;60940;52.046;5.340;2023-06-04T00:06:28;30.61;29.01;32.83;;
71016;Laerm;60940;52.046;5.340;2023-06-04T00:06:38;30.87;29.02;35.08;;
71016;Laerm;60940;52.046;5.340;2023-06-04T00:06:49;29.87;28.83;30.79;;
71016;Laerm;60940;52.046;5.340;2023-06-04T00:06:59;30.30;28.78;36.90;;
71016;Laerm;60940;52.046;5.340;2023-06-04T00:07:09;30.23;28.83;34.70;;
71016;Laerm;60940;52.046;5.340;2023-06-04T00:07:19;31.90;29.60;34.95;;
71016;Laerm;60940;52.046;5.340;2023-06-04T00:07:30;32.04;29.87;34.67;;
71016;Laerm;60940;52.046;5.340;2023-06-04T00:07:40;30.74;29.27;35.60;;
71016;Laerm;60940;52.046;5.340;2023-06-04T00:07:51;30.24;28.85;31.56;;
71016;Laerm;60940;52.046;5.340;2023-06-04T00:08:01;30.17;28.76;34.68;;
71016;Laerm;60940;52.046;5.340;2023-06-04T00:08:11;29.87;28.97;32.09;;
71016;Laerm;60940;52.046;5.340;2023-06-04T00:08:21;29.81;28.49;30.88;;
71016;Laerm;60940;52.046;5.340;2023-06-04T00:08:32;30.14;28.74;31.58;;
71016;Laerm;60940;52.046;5.340;2023-06-04T00:08:42;29.87;28.48;31.25;;
71016;Laerm;60940;52.046;5.340;2023-06-04T00:08:52;29.75;28.46;30.96;;
71016;Laerm;60940;52.046;5.340;2023-06-04T00:09:02;29.74;28.47;32.01;;
71016;Laerm;60940;52.046;5.340;2023-06-04T00:09:13;29.63;28.76;30.78;;
71016;Laerm;60940;52.046;5.340;2023-06-04T00:09:23;29.74;28.36;30.98;;
71016;Laerm;60940;52.046;5.340;2023-06-04T00:09:33;29.94;28.51;34.58;;
71016;Laerm;60940;52.046;5.340;2023-06-04T00:09:43;30.05;28.78;32.04;;
71016;Laerm;60940;52.046;5.340;2023-06-04T00:09:56;30.23;29.03;31.78;;
71016;Laerm;60940;52.046;5.340;2023-06-04T00:10:07;30.26;28.98;32.10;;
71016;Laerm;60940;52.046;5.340;2023-06-04T00:10:17;29.94;28.55;31.34;;
71016;Laerm;60940;52.046;5.340;2023-06-04T00:10:27;29.79;28.68;30.76;;
71016;Laerm;60940;52.046;5.340;2023-06-04T00:10:37;29.79;28.61;30.76;;
71016;Laerm;60940;52.046;5.340;2023-06-04T00:10:49;29.89;28.53;31.79;;
71016;Laerm;60940;52.046;5.340;2023-06-04T00:11:00;30.04;28.76;31.85;;
71016;Laerm;60940;52.046;5.340;2023-06-04T00:11:10;30.44;29.12;32.06;;
71016;Laerm;60940;52.046;5.340;2023-06-04T00:11:20;30.08;29.09;31.37;;
71016;Laerm;60940;52.046;5.340;2023-06-04T00:11:30;30.39;29.11;32.13;;
71016;Laerm;60940;52.046;5.340;2023-06-04T00:11:43;30.17;28.97;31.56;;
71016;Laerm;60940;52.046;5.340;2023-06-04T00:11:55;30.16;28.75;37.15;;
71016;Laerm;60940;52.046;5.340;2023-06-04T00:12:06;29.92;28.55;31.60;;
71016;Laerm;60940;52.046;5.340;2023-06-04T00:12:16;30.05;28.65;33.40;;
71016;Laerm;60940;52.046;5.340;2023-06-04T00:12:26;30.10;28.88;31.89;;
71016;Laerm;60940;52.046;5.340;2023-06-04T00:12:36;29.98;28.95;31.44;;
71016;Laerm;60940;52.046;5.340;2023-06-04T00:12:47;29.63;28.56;31.40;;
71016;Laerm;60940;52.046;5.340;2023-06-04T00:12:58;29.75;28.46;30.85;;
71016;Laerm;60940;52.046;5.340;2023-06-04T00:13:08;29.93;28.95;31.04;;
71016;Laerm;60940;52.046;5.340;2023-06-04T00:13:18;29.68;28.47;30.85;;
71016;Laerm;60940;52.046;5.340;2023-06-04T00:13:28;29.71;28.46;30.83;;
71016;Laerm;60940;52.046;5.340;2023-06-04T00:13:38;29.89;28.36;31.61;;
71016;Laerm;60940;52.046;5.340;2023-06-04T00:13:49;29.90;28.96;31.05;;
71016;Laerm;60940;52.046;5.340;2023-06-04T00:13:59;30.96;29.12;44.29;;
71016;Laerm;60940;52.046;5.340;2023-06-04T00:14:10;30.70;29.38;33.49;;
71016;Laerm;60940;52.046;5.340;2023-06-04T00:14:20;30.96;29.41;32.55;;
71016;Laerm;60940;52.046;5.340;2023-06-04T00:14:30;31.52;29.89;34.91;;
71016;Laerm;60940;52.046;5.340;2023-06-04T00:14:40;30.87;29.06;33.29;;
71016;Laerm;60940;52.046;5.340;2023-06-04T00:14:51;30.47;29.20;32.42;;
71016;Laerm;60940;52.046;5.340;2023-06-04T00:15:01;30.73;29.44;33.23;;
71016;Laerm;60940;52.046;5.340;2023-06-04T00:15:12;30.59;29.09;32.29;;
71016;Laerm;60940;52.046;5.340;2023-06-04T00:15:22;30.46;28.96;34.45;;
71016;Laerm;60940;52.046;5.340;2023-06-04T00:15:33;30.82;29.10;33.17;;
71016;Laerm;60940;52.046;5.340;2023-06-04T00:15:43;30.27;29.03;32.47;;
71016;Laerm;60940;52.046;5.340;2023-06-04T00:15:53;30.62;29.51;31.88;;
71016;Laerm;60940;52.046;5.340;2023-06-04T00:16:03;30.97;29.19;35.58;;
71016;Laerm;60940;52.046;5.340;2023-06-04T00:16:14;30.89;29.26;33.86;;
71016;Laerm;60940;52.046;5.340;2023-06-04T00:16:24;30.60;28.95;33.16;;
71016;Laerm;60940;52.046;5.340;2023-06-04T00:16:34;30.15;28.71;31.80;;
71016;Laerm;60940;52.046;5.340;2023-06-04T00:16:45;30.13;28.92;32.37;;
71016;Laerm;60940;52.046;5.340;2023-06-04T00:16:55;30.06;28.77;31.52;;
71016;Laerm;60940;52.046;5.340;2023-06-04T00:17:05;30.01;28.79;31.14;;
71016;Laerm;60940;52.046;5.340;2023-06-04T00:17:16;29.99;28.51;31.55;;
71016;Laerm;60940;52.046;5.340;2023-06-04T00:17:26;30.72;29.30;33.23;;
71016;Laerm;60940;52.046;5.340;2023-06-04T00:17:36;31.90;29.91;35.88;;
71016;Laerm;60940;52.046;5.340;2023-06-04T00:17:46;32.74;29.52;36.40;;
71016;Laerm;60940;52.046;5.340;2023-06-04T00:17:57;33.56;30.55;37.10;;
71016;Laerm;60940;52.046;5.340;2023-06-04T00:18:07;33.14;30.10;36.75;;
71016;Laerm;60940;52.046;5.340;2023-06-04T00:18:17;32.50;30.04;35.00;;
71016;Laerm;60940;52.046;5.340;2023-06-04T00:18:27;32.29;30.26;34.00;;
71016;Laerm;60940;52.046;5.340;2023-06-04T00:18:37;32.11;30.26;40.35;;
71016;Laerm;60940;52.046;5.340;2023-06-04T00:18:48;31.62;29.63;34.19;;
71016;Laerm;60940;52.046;5.340;2023-06-04T00:18:58;31.51;29.96;33.29;;
71016;Laerm;60940;52.046;5.340;2023-06-04T00:19:08;32.36;29.90;37.37;;
71016;Laerm;60940;52.046;5.340;2023-06-04T00:19:18;32.00;30.14;34.39;;
71016;Laerm;60940;52.046;5.340;2023-06-04T00:19:29;31.06;29.23;35.49;;
71016;Laerm;60940;52.046;5.340;2023-06-04T00:19:39;30.77;29.75;32.34;;
71016;Laerm;60940;52.046;5.340;2023-06-04T00:19:50;30.93;29.57;32.46;;
71016;Laerm;60940;52.046;5.340;2023-06-04T00:20:00;30.09;28.72;31.32;;
71016;Laerm;60940;52.046;5.340;2023-06-04T00:20:11;30.10;28.48;31.83;;
71016;Laerm;60940;52.046;5.340;2023-06-04T00:20:21;30.25;28.98;31.49;;
71016;Laerm;60940;52.046;5.340;2023-06-04T00:20:31;30.54;28.72;32.84;;
71016;Laerm;60940;52.046;5.340;2023-06-04T00:20:41;30.36;29.04;33.42;;
71016;Laerm;60940;52.046;5.340;2023-06-04T00:20:52;30.19;28.87;31.42;;
71016;Laerm;60940;52.046;5.340;2023-06-04T00:21:02;30.14;29.08;31.58;;
71016;Laerm;60940;52.046;5.340;2023-06-04T00:21:12;29.99;28.70;31.86;;
71016;Laerm;60940;52.046;5.340;2023-06-04T00:21:22;30.29;29.03;31.69;;
71016;Laerm;60940;52.046;5.340;2023-06-04T00:21:32;30.44;28.99;32.02;;
71016;Laerm;60940;52.046;5.340;2023-06-04T00:21:43;31.02;29.22;35.04;;
71016;Laerm;60940;52.046;5.340;2023-06-04T00:21:53;31.19;29.25;33.56;;
71016;Laerm;60940;52.046;5.340;2023-06-04T00:22:03;30.78;29.06;32.65;;
71016;Laerm;60940;52.046;5.340;2023-06-04T00:22:13;30.41;28.96;32.86;;
71016;Laerm;60940;52.046;5.340;2023-06-04T00:22:24;30.26;28.99;33.15;;
71016;Laerm;60940;52.046;5.340;2023-06-04T00:22:34;30.14;28.52;31.20;;
71016;Laerm;60940;52.046;5.340;2023-06-04T00:22:44;30.54;29.19;31.98;;
71016;Laerm;60940;52.046;5.340;2023-06-04T00:22:55;30.71;29.30;32.22;;
71016;Laerm;60940;52.046;5.340;2023-06-04T00:23:05;30.55;29.43;32.28;;
71016;Laerm;60940;52.046;5.340;2023-06-04T00:23:15;30.46;29.03;31.92;;
71016;Laerm;60940;52.046;5.340;2023-06-04T00:23:25;30.05;28.87;31.14;;
71016;Laerm;60940;52.046;5.340;2023-06-04T00:23:35;30.42;29.24;31.91;;
71016;Laerm;60940;52.046;5.340;2023-06-04T00:23:46;30.36;28.95;32.36;;
71016;Laerm;60940;52.046;5.340;2023-06-04T00:23:56;30.00;28.68;31.28;;
71016;Laerm;60940;52.046;5.340;2023-06-04T00:24:06;29.80;28.70;31.36;;
71016;Laerm;60940;52.046;5.340;2023-06-04T00:24:16;29.81;28.66;31.02;;
71016;Laerm;60940;52.046;5.340;2023-06-04T00:24:26;30.19;28.98;33.42;;
71016;Laerm;60940;52.046;5.340;2023-06-04T00:24:37;30.15;29.03;31.77;;
71016;Laerm;60940;52.046;5.340;2023-06-04T00:24:47;30.16;28.79;31.48;;
71016;Laerm;60940;52.046;5.340;2023-06-04T00:24:58;29.92;28.61;32.08;;
71016;Laerm;60940;52.046;5.340;2023-06-04T00:25:11;30.04;28.54;32.34;;
71016;Laerm;60940;52.046;5.340;2023-06-04T00:25:21;29.96;28.93;32.14;;
71016;Laerm;60940;52.046;5.340;2023-06-04T00:25:31;29.91;28.45;31.08;;
71016;Laerm;60940;52.046;5.340;2023-06-04T00:25:41;29.59;28.53;30.66;;
71016;Laerm;60940;52.046;5.340;2023-06-04T00:25:51;29.49;28.10;30.41;;
71016;Laerm;60940;52.046;5.340;2023-06-04T00:26:03;29.61;28.53;30.63;;
71016;Laerm;60940;52.046;5.340;2023-06-04T00:26:13;29.64;28.56;30.83;;
71016;Laerm;60940;52.046;5.340;2023-06-04T00:26:23;29.70;28.69;31.03;;
71016;Laerm;60940;52.046;5.340;2023-06-04T00:26:33;29.89;28.56;31.44;;
71016;Laerm;60940;52.046;5.340;2023-06-04T00:26:44;30.15;28.63;37.48;;
71016;Laerm;60940;52.046;5.340;2023-06-04T00:26:54;30.51;29.22;31.83;;
71016;Laerm;60940;52.046;5.340;2023-06-04T00:27:05;29.97;28.90;31.12;;
71016;Laerm;60940;52.046;5.340;2023-06-04T00:27:15;29.99;28.79;31.65;;
71016;Laerm;60940;52.046;5.340;2023-06-04T00:27:25;30.05;28.93;31.18;;
71016;Laerm;60940;52.046;5.340;2023-06-04T00:27:35;30.83;28.98;35.63;;
71016;Laerm;60940;52.046;5.340;2023-06-04T00:27:46;31.28;29.69;34.02;;
71016;Laerm;60940;52.046;5.340;2023-06-04T00:27:56;30.29;29.21;31.79;;
71016;Laerm;60940;52.046;5.340;2023-06-04T00:28:06;30.95;29.47;32.73;;
71016;Laerm;60940;52.046;5.340;2023-06-04T00:28:16;30.76;29.40;32.36;;
71016;Laerm;60940;52.046;5.340;2023-06-04T00:28:27;31.24;29.08;44.73;;
71016;Laerm;60940;52.046;5.340;2023-06-04T00:28:37;30.86;28.92;34.14;;
71016;Laerm;60940;52.046;5.340;2023-06-04T00:28:47;31.71;29.58;34.91;;
71016;Laerm;60940;52.046;5.340;2023-06-04T00:28:57;32.37;29.76;34.94;;
71016;Laerm;60940;52.046;5.340;2023-06-04T00:29:07;31.60;29.98;34.34;;
71016;Laerm;60940;52.046;5.340;2023-06-04T00:29:17;32.04;30.35;34.13;;
71016;Laerm;60940;52.046;5.340;2023-06-04T00:29:28;31.22;29.77;33.53;;
71016;Laerm;60940;52.046;5.340;2023-06-04T00:29:38;30.69;29.25;32.37;;
71016;Laerm;60940;52.046;5.340;2023-06-04T00:29:48;30.34;29.27;31.92;;
71016;Laerm;60940;52.046;5.340;2023-06-04T00:29:58;30.40;29.17;32.75;;
71016;Laerm;60940;52.046;5.340;2023-06-04T00:30:09;30.16;29.06;31.77;;
71016;Laerm;60940;52.046;5.340;2023-06-04T00:30:19;30.01;28.70;31.21;;
71016;Laerm;60940;52.046;5.340;2023-06-04T00:30:29;29.84;28.40;31.30;;
71016;Laerm;60940;52.046;5.340;2023-06-04T00:30:40;30.06;28.87;31.21;;
71016;Laerm;60940;52.046;5.340;2023-06-04T00:30:50;30.74;29.49;33.17;;
71016;Laerm;60940;52.046;5.340;2023-06-04T00:31:02;31.19;29.74;33.33;;
71016;Laerm;60940;52.046;5.340;2023-06-04T00:31:12;31.74;29.69;37.79;;
71016;Laerm;60940;52.046;5.340;2023-06-04T00:31:22;31.41;29.87;33.56;;
71016;Laerm;60940;52.046;5.340;2023-06-04T00:31:33;30.85;29.48;32.71;;
71016;Laerm;60940;52.046;5.340;2023-06-04T00:31:43;30.73;29.01;32.40;;
71016;Laerm;60940;52.046;5.340;2023-06-04T00:31:54;29.82;28.55;31.02;;
71016;Laerm;60940;52.046;5.340;2023-06-04T00:32:04;29.67;28.55;30.79;;
71016;Laerm;60940;52.046;5.340;2023-06-04T00:32:14;30.11;28.61;32.90;;
71016;Laerm;60940;52.046;5.340;2023-06-04T00:32:25;30.29;28.99;31.48;;
71016;Laerm;60940;52.046;5.340;2023-06-04T00:32:35;30.37;29.18;31.89;;
71016;Laerm;60940;52.046;5.340;2023-06-04T00:32:45;30.63;29.08;32.64;;
71016;Laerm;60940;52.046;5.340;2023-06-04T00:32:56;30.61;29.02;32.08;;
71016;Laerm;60940;52.046;5.340;2023-06-04T00:33:07;31.15;29.52;37.41;;
71016;Laerm;60940;52.046;5.340;2023-06-04T00:33:17;29.96;28.66;31.21;;
71016;Laerm;60940;52.046;5.340;2023-06-04T00:33:27;30.20;29.13;31.26;;
71016;Laerm;60940;52.046;5.340;2023-06-04T00:33:38;30.94;29.26;33.02;;
71016;Laerm;60940;52.046;5.340;2023-06-04T00:33:48;31.06;29.54;33.50;;
71016;Laerm;60940;52.046;5.340;2023-06-04T00:33:58;33.15;29.01;40.39;;
71016;Laerm;60940;52.046;5.340;2023-06-04T00:34:09;32.09;29.21;38.00;;
71016;Laerm;60940;52.046;5.340;2023-06-04T00:34:20;30.14;29.17;31.26;;
71016;Laerm;60940;52.046;5.340;2023-06-04T00:34:30;30.10;28.88;31.05;;
71016;Laerm;60940;52.046;5.340;2023-06-04T00:34:40;30.04;28.86;31.36;;
71016;Laerm;60940;52.046;5.340;2023-06-04T00:34:51;29.84;28.51;31.40;;
71016;Laerm;60940;52.046;5.340;2023-06-04T00:35:02;29.37;28.31;30.57;;
71016;Laerm;60940;52.046;5.340;2023-06-04T00:35:12;29.35;28.37;30.35;;
71016;Laerm;60940;52.046;5.340;2023-06-04T00:35:22;29.73;28.64;32.20;;
71016;Laerm;60940;52.046;5.340;2023-06-04T00:35:32;29.11;27.67;30.14;;
71016;Laerm;60940;52.046;5.340;2023-06-04T00:35:43;28.98;28.08;30.76;;
71016;Laerm;60940;52.046;5.340;2023-06-04T00:35:53;29.24;28.26;30.91;;
71016;Laerm;60940;52.046;5.340;2023-06-04T00:36:03;29.12;27.97;30.48;;
71016;Laerm;60940;52.046;5.340;2023-06-04T00:36:13;29.19;27.93;30.34;;
71016;Laerm;60940;52.046;5.340;2023-06-04T00:36:23;29.56;28.54;30.75;;
71016;Laerm;60940;52.046;5.340;2023-06-04T00:36:34;29.62;28.49;30.88;;
71016;Laerm;60940;52.046;5.340;2023-06-04T00:36:44;29.47;28.40;34.92;;
71016;Laerm;60940;52.046;5.340;2023-06-04T00:36:54;29.38;28.34;30.47;;
71016;Laerm;60940;52.046;5.340;2023-06-04T00:37:04;29.23;28.28;30.55;;
71016;Laerm;60940;52.046;5.340;2023-06-04T00:37:15;29.32;28.06;30.96;;
71016;Laerm;60940;52.046;5.340;2023-06-04T00:37:25;29.45;28.49;30.56;;
71016;Laerm;60940;52.046;5.340;2023-06-04T00:37:35;29.76;28.20;30.83;;
71016;Laerm;60940;52.046;5.340;2023-06-04T00:37:45;30.62;29.03;38.35;;
71016;Laerm;60940;52.046;5.340;2023-06-04T00:37:56;30.45;28.82;31.91;;
71016;Laerm;60940;52.046;5.340;2023-06-04T00:38:06;30.04;28.69;31.12;;
71016;Laerm;60940;52.046;5.340;2023-06-04T00:38:16;29.62;28.49;30.79;;
71016;Laerm;60940;52.046;5.340;2023-06-04T00:38:26;29.68;28.57;30.90;;
71016;Laerm;60940;52.046;5.340;2023-06-04T00:38:37;29.93;28.67;31.18;;
71016;Laerm;60940;52.046;5.340;2023-06-04T00:38:47;29.71;28.15;31.05;;
71016;Laerm;60940;52.046;5.340;2023-06-04T00:38:57;31.45;28.55;34.67;;
71016;Laerm;60940;52.046;5.340;2023-06-04T00:39:07;31.14;28.80;36.14;;
71016;Laerm;60940;52.046;5.340;2023-06-04T00:39:18;33.00;30.16;41.86;;
71016;Laerm;60940;52.046;5.340;2023-06-04T00:39:28;33.66;28.84;40.74;;
71016;Laerm;60940;52.046;5.340;2023-06-04T00:39:39;30.14;29.09;31.29;;
71016;Laerm;60940;52.046;5.340;2023-06-04T00:39:49;31.73;29.19;47.23;;
71016;Laerm;60940;52.046;5.340;2023-06-04T00:39:59;31.22;29.33;34.16;;
71016;Laerm;60940;52.046;5.340;2023-06-04T00:40:10;33.29;29.77;37.94;;
71016;Laerm;60940;52.046;5.340;2023-06-04T00:40:21;33.93;30.82;38.12;;
71016;Laerm;60940;52.046;5.340;2023-06-04T00:40:31;33.46;29.62;38.68;;
71016;Laerm;60940;52.046;5.340;2023-06-04T00:40:41;30.96;29.15;35.48;;
71016;Laerm;60940;52.046;5.340;2023-06-04T00:40:51;30.46;29.07;34.69;;
71016;Laerm;60940;52.046;5.340;2023-06-04T00:41:01;30.67;29.56;31.85;;
71016;Laerm;60940;52.046;5.340;2023-06-04T00:41:12;30.65;29.25;32.40;;
71016;Laerm;60940;52.046;5.340;2023-06-04T00:41:22;30.67;29.23;32.02;;
71016;Laerm;60940;52.046;5.340;2023-06-04T00:41:32;31.23;29.15;33.00;;
71016;Laerm;60940;52.046;5.340;2023-06-04T00:41:42;31.17;29.56;33.20;;
71016;Laerm;60940;52.046;5.340;2023-06-04T00:41:52;30.41;29.41;31.64;;
71016;Laerm;60940;52.046;5.340;2023-06-04T00:42:03;30.42;29.05;31.51;;
71016;Laerm;60940;52.046;5.340;2023-06-04T00:42:13;30.69;29.12;32.82;;
71016;Laerm;60940;52.046;5.340;2023-06-04T00:42:23;30.19;28.89;32.32;;
71016;Laerm;60940;52.046;5.340;2023-06-04T00:42:33;30.31;28.87;35.18;;
71016;Laerm;60940;52.046;5.340;2023-06-04T00:42:44;31.21;29.47;34.11;;
71016;Laerm;60940;52.046;5.340;2023-06-04T00:42:55;34.87;29.16;48.53;;
71016;Laerm;60940;52.046;5.340;2023-06-04T00:43:05;30.10;28.68;37.55;;
71016;Laerm;60940;52.046;5.340;2023-06-04T00:43:16;29.83;28.40;30.89;;
71016;Laerm;60940;52.046;5.340;2023-06-04T00:43:26;30.12;28.78;31.60;;
71016;Laerm;60940;52.046;5.340;2023-06-04T00:43:37;33.21;30.10;41.62;;
71016;Laerm;60940;52.046;5.340;2023-06-04T00:43:47;41.79;30.50;56.32;;
71016;Laerm;60940;52.046;5.340;2023-06-04T00:44:05;31.61;28.72;44.65;;
71016;Laerm;60940;52.046;5.340;2023-06-04T00:44:16;30.70;29.14;32.92;;
71016;Laerm;60940;52.046;5.340;2023-06-04T00:44:27;30.57;29.34;34.92;;
71016;Laerm;60940;52.046;5.340;2023-06-04T00:44:38;30.12;28.60;31.37;;
71016;Laerm;60940;52.046;5.340;2023-06-04T00:44:54;30.30;28.90;34.25;;
71016;Laerm;60940;52.046;5.340;2023-06-04T00:45:07;30.58;28.32;36.98;;
71016;Laerm;60940;52.046;5.340;2023-06-04T00:45:19;29.88;28.65;31.78;;
71016;Laerm;60940;52.046;5.340;2023-06-04T00:45:30;30.08;28.90;31.73;;
71016;Laerm;60940;52.046;5.340;2023-06-04T00:45:41;30.02;28.60;32.45;;
71016;Laerm;60940;52.046;5.340;2023-06-04T00:45:52;29.82;28.57;32.48;;
71016;Laerm;60940;52.046;5.340;2023-06-04T00:46:02;29.63;28.49;31.11;;
71016;Laerm;60940;52.046;5.340;2023-06-04T00:46:13;29.89;28.50;34.84;;
71016;Laerm;60940;52.046;5.340;2023-06-04T00:46:28;29.83;28.25;31.04;;
71016;Laerm;60940;52.046;5.340;2023-06-04T00:46:39;30.07;28.88;32.10;;
71016;Laerm;60940;52.046;5.340;2023-06-04T00:46:49;29.88;28.74;31.54;;
71016;Laerm;60940;52.046;5.340;2023-06-04T00:47:00;29.91;28.82;31.44;;
71016;Laerm;60940;52.046;5.340;2023-06-04T00:47:11;30.69;28.66;33.03;;
71016;Laerm;60940;52.046;5.340;2023-06-04T00:47:22;30.77;29.09;32.55;;
71016;Laerm;60940;52.046;5.340;2023-06-04T00:47:32;29.97;28.53;31.24;;
71016;Laerm;60940;52.046;5.340;2023-06-04T00:47:43;29.65;28.53;30.93;;
71016;Laerm;60940;52.046;5.340;2023-06-04T00:47:53;29.40;28.41;30.65;;
71016;Laerm;60940;52.046;5.340;2023-06-04T00:48:03;29.33;28.25;30.37;;
71016;Laerm;60940;52.046;5.340;2023-06-04T00:48:14;29.60;28.37;31.52;;
71016;Laerm;60940;52.046;5.340;2023-06-04T00:48:24;29.50;28.10;30.57;;
71016;Laerm;60940;52.046;5.340;2023-06-04T00:48:37;29.61;28.34;31.01;;
71016;Laerm;60940;52.046;5.340;2023-06-04T00:48:48;29.81;28.77;31.19;;
71016;Laerm;60940;52.046;5.340;2023-06-04T00:48:58;30.07;29.01;31.15;;
71016;Laerm;60940;52.046;5.340;2023-06-04T00:49:09;29.89;28.31;31.47;;
71016;Laerm;60940;52.046;5.340;2023-06-04T00:49:22;29.84;28.51;31.39;;
71016;Laerm;60940;52.046;5.340;2023-06-04T00:49:32;29.87;28.54;31.77;;
71016;Laerm;60940;52.046;5.340;2023-06-04T00:49:42;29.80;28.37;31.02;;
71016;Laerm;60940;52.046;5.340;2023-06-04T00:49:53;29.59;28.34;31.02;;
71016;Laerm;60940;52.046;5.340;2023-06-04T00:50:06;29.46;28.25;30.81;;
71016;Laerm;60940;52.046;5.340;2023-06-04T00:50:17;30.43;28.49;38.81;;
71016;Laerm;60940;52.046;5.340;2023-06-04T00:50:28;29.78;28.67;30.79;;
71016;Laerm;60940;52.046;5.340;2023-06-04T00:50:38;30.16;28.84;33.08;;
71016;Laerm;60940;52.046;5.340;2023-06-04T00:50:49;30.54;28.61;32.52;;
71016;Laerm;60940;52.046;5.340;2023-06-04T00:51:00;30.67;29.01;32.84;;
71016;Laerm;60940;52.046;5.340;2023-06-04T00:51:11;30.29;29.08;32.47;;
71016;Laerm;60940;52.046;5.340;2023-06-04T00:51:22;31.22;29.26;39.55;;
71016;Laerm;60940;52.046;5.340;2023-06-04T00:51:32;31.37;29.96;34.82;;
71016;Laerm;60940;52.046;5.340;2023-06-04T00:51:42;30.52;29.05;31.87;;
71016;Laerm;60940;52.046;5.340;2023-06-04T00:51:52;30.53;29.01;32.15;;
71016;Laerm;60940;52.046;5.340;2023-06-04T00:52:03;30.54;28.64;32.76;;
71016;Laerm;60940;52.046;5.340;2023-06-04T00:52:14;30.34;29.07;32.16;;
71016;Laerm;60940;52.046;5.340;2023-06-04T00:52:24;30.08;28.93;31.72;;
71016;Laerm;60940;52.046;5.340;2023-06-04T00:52:35;30.29;28.89;31.81;;
71016;Laerm;60940;52.046;5.340;2023-06-04T00:52:46;30.20;28.97;32.38;;
71016;Laerm;60940;52.046;5.340;2023-06-04T00:52:56;31.56;29.35;35.01;;
71016;Laerm;60940;52.046;5.340;2023-06-04T00:53:07;32.46;30.44;35.64;;
71016;Laerm;60940;52.046;5.340;2023-06-04T00:53:18;32.47;29.98;35.61;;
71016;Laerm;60940;52.046;5.340;2023-06-04T00:53:29;32.77;30.27;38.52;;
71016;Laerm;60940;52.046;5.340;2023-06-04T00:53:39;32.89;30.07;35.87;;
71016;Laerm;60940;52.046;5.340;2023-06-04T00:53:50;32.30;30.24;34.12;;
71016;Laerm;60940;52.046;5.340;2023-06-04T00:54:00;31.83;29.98;33.92;;
71016;Laerm;60940;52.046;5.340;2023-06-04T00:54:12;31.31;28.85;35.29;;
71016;Laerm;60940;52.046;5.340;2023-06-04T00:54:22;30.57;29.00;32.15;;
71016;Laerm;60940;52.046;5.340;2023-06-04T00:54:34;30.22;29.03;31.56;;
71016;Laerm;60940;52.046;5.340;2023-06-04T00:54:44;30.02;28.68;31.11;;
71016;Laerm;60940;52.046;5.340;2023-06-04T00:54:54;30.16;28.30;32.89;;
71016;Laerm;60940;52.046;5.340;2023-06-04T00:55:05;30.57;28.98;34.05;;
71016;Laerm;60940;52.046;5.340;2023-06-04T00:55:15;31.09;29.40;32.76;;
71016;Laerm;60940;52.046;5.340;2023-06-04T00:55:28;32.13;30.36;35.34;;
71016;Laerm;60940;52.046;5.340;2023-06-04T00:55:38;31.90;29.68;39.31;;
71016;Laerm;60940;52.046;5.340;2023-06-04T00:55:48;33.66;29.91;45.18;;
71016;Laerm;60940;52.046;5.340;2023-06-04T00:55:59;30.54;29.21;32.33;;
71016;Laerm;60940;52.046;5.340;2023-06-04T00:56:09;30.38;29.24;31.66;;
71016;Laerm;60940;52.046;5.340;2023-06-04T00:56:20;30.37;28.90;31.62;;
71016;Laerm;60940;52.046;5.340;2023-06-04T00:56:30;30.39;28.95;32.59;;
71016;Laerm;60940;52.046;5.340;2023-06-04T00:56:40;30.11;28.75;31.84;;
71016;Laerm;60940;52.046;5.340;2023-06-04T00:56:50;30.63;29.45;32.06;;
71016;Laerm;60940;52.046;5.340;2023-06-04T00:57:00;31.01;29.59;33.61;;
71016;Laerm;60940;52.046;5.340;2023-06-04T00:57:11;31.72;29.70;35.67;;
71016;Laerm;60940;52.046;5.340;2023-06-04T00:57:21;31.35;29.70;37.31;;
71016;Laerm;60940;52.046;5.340;2023-06-04T00:57:32;32.48;28.99;45.32;;
71016;Laerm;60940;52.046;5.340;2023-06-04T00:57:42;30.56;28.81;36.51;;
71016;Laerm;60940;52.046;5.340;2023-06-04T00:57:52;30.52;29.31;31.86;;
71016;Laerm;60940;52.046;5.340;2023-06-04T00:58:02;30.08;28.87;31.46;;
71016;Laerm;60940;52.046;5.340;2023-06-04T00:58:14;30.38;28.86;33.50;;
71016;Laerm;60940;52.046;5.340;2023-06-04T00:58:25;29.90;28.77;31.75;;
71016;Laerm;60940;52.046;5.340;2023-06-04T00:58:38;29.85;28.55;31.12;;
71016;Laerm;60940;52.046;5.340;2023-06-04T00:58:49;29.78;28.55;30.94;;